createdAt,value
2023-05-20T00:00:57.866Z,4.50
2023-05-20T00:03:25.958Z,4.53
2023-05-20T00:05:54.058Z,4.65
2023-05-20T00:08:21.988Z,4.47
2023-05-20T00:10:49.867Z,5.05
2023-05-20T00:13:17.811Z,4.28
2023-05-20T00:15:47.114Z,4.82
2023-05-20T00:18:15.031Z,4.53
2023-05-20T00:20:42.915Z,4.63
2023-05-20T00:23:10.778Z,4.45
2023-05-20T00:25:38.748Z,4.50
2023-05-20T00:28:07.353Z,3.72
2023-05-20T00:30:35.232Z,4.75
2023-05-20T00:33:04.710Z,4.78
2023-05-20T00:35:32.813Z,4.22
2023-05-20T00:38:01.052Z,4.60
2023-05-20T00:40:28.905Z,4.30
2023-05-20T00:42:56.864Z,3.42
2023-05-20T00:45:24.899Z,3.92
2023-05-20T00:47:52.876Z,3.65
2023-05-20T00:50:22.250Z,4.10
2023-05-20T00:52:51.677Z,3.97
2023-05-20T00:55:20.367Z,4.18
2023-05-20T00:57:48.426Z,3.70
2023-05-20T01:00:16.747Z,3.80
2023-05-20T01:02:44.738Z,3.92
2023-05-20T01:05:12.790Z,3.95
2023-05-20T01:07:42.085Z,3.88
2023-05-20T01:10:10.995Z,4.43
2023-05-20T01:12:41.408Z,4.20
2023-05-20T01:15:11.276Z,4.18
2023-05-20T01:17:41.550Z,3.72
2023-05-20T01:20:11.090Z,4.30
2023-05-20T01:22:40.888Z,4.10
2023-05-20T01:25:09.581Z,3.90
2023-05-20T01:27:37.905Z,4.80
2023-05-20T01:30:07.277Z,4.15
2023-05-20T01:32:38.947Z,4.57
2023-05-20T01:35:08.206Z,4.28
2023-05-20T01:37:38.285Z,4.45
2023-05-20T01:40:09.711Z,4.18
2023-05-20T01:42:38.138Z,3.90
2023-05-20T01:45:07.175Z,4.60
2023-05-20T01:47:35.140Z,4.22
2023-05-20T01:50:03.288Z,4.43
2023-05-20T01:52:31.784Z,4.40
2023-05-20T01:54:59.804Z,4.60
2023-05-20T01:57:29.066Z,4.38
2023-05-20T01:59:57.027Z,5.07
2023-05-20T02:02:25.044Z,4.50
2023-05-20T02:04:54.647Z,3.90
2023-05-20T02:07:22.524Z,4.25
2023-05-20T02:09:50.421Z,3.92
2023-05-20T02:12:18.350Z,4.13
2023-05-20T02:14:49.270Z,3.97
2023-05-20T02:17:19.823Z,4.40
2023-05-20T02:19:47.976Z,4.40
2023-05-20T02:22:16.972Z,4.65
2023-05-20T02:24:44.931Z,4.25
2023-05-20T02:27:13.092Z,4.40
2023-05-20T02:29:41.186Z,4.88
2023-05-20T02:32:11.266Z,4.90
2023-05-20T02:34:39.246Z,4.50
2023-05-20T02:37:07.128Z,4.55
2023-05-20T02:39:35.022Z,4.85
2023-05-20T02:42:02.954Z,4.88
2023-05-20T02:44:30.789Z,4.43
2023-05-20T02:46:58.736Z,4.13
2023-05-20T02:49:28.055Z,4.40
2023-05-20T02:51:55.940Z,4.00
2023-05-20T02:54:23.878Z,4.50
2023-05-20T02:56:51.824Z,4.22
2023-05-20T02:59:19.738Z,4.75
2023-05-20T03:01:47.789Z,4.70
2023-05-20T03:04:16.133Z,4.43
2023-05-20T03:06:46.545Z,4.57
2023-05-20T03:09:14.551Z,4.63
2023-05-20T03:11:42.444Z,4.53
2023-05-20T03:14:10.287Z,4.47
2023-05-20T03:16:38.411Z,4.13
2023-05-20T03:19:06.357Z,4.72
2023-05-20T03:21:34.350Z,4.80
2023-05-20T03:24:03.633Z,4.75
2023-05-20T03:26:33.235Z,4.35
2023-05-20T03:29:01.143Z,4.57
2023-05-20T03:31:29.416Z,4.15
2023-05-20T03:33:57.345Z,4.70
2023-05-20T03:36:25.446Z,4.70
2023-05-20T03:38:53.316Z,4.63
2023-05-20T03:41:22.645Z,4.20
2023-05-20T03:43:50.546Z,4.93
2023-05-20T03:46:18.672Z,4.30
2023-05-20T03:48:46.583Z,4.30
2023-05-20T03:51:14.596Z,4.78
2023-05-20T03:53:42.436Z,4.30
2023-05-20T03:56:10.372Z,4.68
2023-05-20T03:58:41.962Z,4.50
2023-05-20T04:01:09.870Z,4.68
2023-05-20T04:03:37.946Z,4.53
2023-05-20T04:06:05.994Z,4.60
2023-05-20T04:08:34.006Z,4.25
2023-05-20T04:11:01.971Z,4.45
2023-05-20T04:13:29.955Z,4.63
2023-05-20T04:15:59.772Z,4.47
2023-05-20T04:18:29.861Z,4.32
2023-05-20T04:20:57.786Z,4.50
2023-05-20T04:23:25.689Z,4.68
2023-05-20T04:25:53.531Z,4.63
2023-05-20T04:28:23.983Z,3.95
2023-05-20T04:31:02.722Z,4.10
2023-05-20T04:33:30.682Z,4.70
2023-05-20T04:35:59.473Z,4.65
2023-05-20T04:38:29.971Z,4.85
2023-05-20T04:40:58.981Z,4.57
2023-05-20T04:43:29.974Z,4.40
2023-05-20T04:45:58.533Z,4.47
2023-05-20T04:48:28.226Z,4.45
2023-05-20T04:50:56.106Z,4.68
2023-05-20T04:53:23.990Z,4.57
2023-05-20T04:55:53.908Z,4.68
2023-05-20T04:58:24.359Z,4.85
2023-05-20T05:00:53.121Z,4.55
2023-05-20T05:03:21.069Z,4.70
2023-05-20T05:05:50.312Z,4.90
2023-05-20T05:08:18.254Z,4.72
2023-05-20T05:10:46.820Z,4.70
2023-05-20T05:13:14.770Z,5.20
2023-05-20T05:15:42.787Z,5.18
2023-05-20T05:18:11.240Z,4.03
2023-05-20T05:20:39.205Z,4.20
2023-05-20T05:23:08.487Z,4.82
2023-05-20T05:25:36.472Z,4.70
2023-05-20T05:28:04.662Z,4.93
2023-05-20T05:30:32.615Z,4.60
2023-05-20T05:33:00.828Z,4.78
2023-05-20T05:35:29.317Z,3.83
2023-05-20T05:37:57.230Z,4.00
2023-05-20T05:40:26.801Z,3.85
2023-05-20T05:42:54.782Z,4.07
2023-05-20T05:45:22.632Z,3.83
2023-05-20T05:47:50.712Z,4.15
2023-05-20T05:50:18.843Z,3.92
2023-05-20T05:52:46.863Z,4.00
2023-05-20T05:55:14.806Z,4.05
2023-05-20T05:57:44.064Z,4.28
2023-05-20T06:00:12.912Z,3.85
2023-05-20T06:02:41.002Z,3.80
2023-05-20T06:05:10.396Z,4.15
2023-05-20T06:07:38.366Z,4.07
2023-05-20T06:10:07.351Z,4.40
2023-05-20T06:12:35.466Z,4.13
2023-05-20T06:15:06.934Z,5.07
2023-05-20T06:17:34.888Z,4.32
2023-05-20T06:20:03.034Z,4.72
2023-05-20T06:22:31.009Z,4.28
2023-05-20T06:25:00.745Z,4.43
2023-05-20T06:27:28.737Z,4.28
2023-05-20T06:29:56.664Z,4.47
2023-05-20T06:32:25.934Z,4.28
2023-05-20T06:34:53.899Z,4.30
2023-05-20T06:37:24.384Z,4.50
2023-05-20T06:39:53.868Z,4.60
2023-05-20T06:42:22.092Z,4.75
2023-05-20T06:44:50.024Z,4.28
2023-05-20T06:47:18.753Z,4.43
2023-05-20T06:49:50.308Z,3.88
2023-05-20T06:52:18.269Z,4.47
2023-05-20T06:54:46.330Z,4.40
2023-05-20T06:57:14.248Z,3.90
2023-05-20T06:59:42.237Z,4.18
2023-05-20T07:02:10.442Z,3.85
2023-05-20T07:04:38.699Z,4.03
2023-05-20T07:07:08.146Z,3.78
2023-05-20T07:09:36.185Z,4.72
2023-05-20T07:12:04.170Z,4.18
2023-05-20T07:14:38.362Z,3.92
2023-05-20T07:17:06.605Z,4.40
2023-05-20T07:19:34.929Z,3.97
2023-05-20T07:22:02.981Z,4.18
2023-05-20T07:24:32.534Z,3.85
2023-05-20T07:27:00.468Z,4.00
2023-05-20T07:29:28.505Z,4.50
2023-05-20T07:31:56.520Z,3.60
2023-05-20T07:34:24.521Z,3.83
2023-05-20T07:36:55.391Z,4.10
2023-05-20T07:39:23.744Z,4.10
2023-05-20T07:41:53.037Z,3.97
2023-05-20T07:44:22.203Z,3.60
2023-05-20T07:46:50.320Z,3.90
2023-05-20T07:49:18.242Z,4.38
2023-05-20T07:51:46.979Z,4.13
2023-05-20T07:54:15.399Z,3.80
2023-05-20T07:56:43.373Z,3.67
2023-05-20T07:59:12.860Z,3.78
2023-05-20T08:01:42.329Z,5.13
2023-05-20T08:04:10.479Z,4.20
2023-05-20T08:06:38.567Z,3.75
2023-05-20T08:09:06.875Z,3.22
2023-05-20T08:11:34.854Z,3.40
2023-05-20T08:14:03.145Z,3.85
2023-05-20T08:16:34.729Z,3.30
2023-05-20T08:19:02.852Z,3.42
2023-05-20T08:21:33.763Z,3.40
2023-05-20T08:24:03.148Z,3.60
2023-05-20T08:26:33.138Z,3.83
2023-05-20T08:29:01.387Z,3.20
2023-05-20T08:31:29.327Z,3.50
2023-05-20T08:33:58.787Z,3.22
2023-05-20T08:36:26.809Z,3.30
2023-05-20T08:38:55.832Z,3.15
2023-05-20T08:41:24.937Z,3.13
2023-05-20T08:43:53.507Z,3.13
2023-05-20T08:46:22.566Z,3.33
2023-05-20T08:48:53.243Z,2.97
2023-05-20T08:51:23.924Z,3.10
2023-05-20T08:53:52.322Z,3.15
2023-05-20T08:56:21.946Z,4.32
2023-05-20T08:58:50.564Z,3.17
2023-05-20T09:01:18.622Z,2.67
2023-05-20T09:03:48.830Z,3.00
2023-05-20T09:06:18.035Z,3.15
2023-05-20T09:08:47.730Z,2.58
2023-05-20T09:11:15.739Z,2.90
2023-05-20T09:13:43.686Z,2.95
2023-05-20T09:16:11.904Z,2.70
2023-05-20T09:18:40.327Z,2.60
2023-05-20T09:21:08.303Z,2.47
2023-05-20T09:23:38.112Z,2.60
2023-05-20T09:26:07.646Z,3.17
2023-05-20T09:28:38.445Z,2.88
2023-05-20T09:31:07.147Z,2.80
2023-05-20T09:33:35.760Z,3.03
2023-05-20T09:36:05.440Z,2.63
2023-05-20T09:38:38.074Z,2.55
2023-05-20T09:41:09.173Z,2.88
2023-05-20T09:43:37.617Z,3.25
2023-05-20T09:46:06.001Z,2.60
2023-05-20T09:48:34.515Z,3.15
2023-05-20T09:51:02.865Z,2.50
2023-05-20T09:53:31.157Z,2.72
2023-05-20T09:55:59.599Z,2.65
2023-05-20T09:58:30.516Z,3.17
2023-05-20T10:00:58.532Z,2.80
2023-05-20T10:03:28.315Z,2.70
2023-05-20T10:06:08.425Z,2.97
2023-05-20T10:08:49.168Z,3.17
2023-05-20T10:11:25.953Z,2.97
2023-05-20T10:14:07.250Z,3.25
2023-05-20T10:16:39.917Z,2.50
2023-05-20T10:19:14.269Z,2.65
2023-05-20T10:21:42.287Z,2.60
2023-05-20T10:24:10.982Z,2.90
2023-05-20T10:26:39.439Z,2.92
2023-05-20T10:29:18.195Z,2.53
2023-05-20T10:31:46.732Z,2.50
2023-05-20T10:34:16.353Z,2.90
2023-05-20T10:36:48.152Z,3.00
2023-05-20T10:39:17.466Z,3.30
2023-05-20T10:41:45.370Z,3.00
2023-05-20T10:44:13.299Z,2.95
2023-05-20T10:49:23.183Z,2.80
2023-05-20T10:51:54.133Z,2.83
2023-05-20T10:54:23.346Z,3.00
2023-05-20T10:56:54.802Z,2.47
2023-05-20T10:59:23.158Z,2.60
2023-05-20T11:01:52.586Z,2.55
2023-05-20T11:04:20.676Z,3.47
2023-05-20T11:06:52.334Z,2.75
2023-05-20T11:09:20.429Z,2.30
2023-05-20T11:11:48.621Z,2.97
2023-05-20T11:14:18.226Z,2.80
2023-05-20T11:16:46.961Z,3.10
2023-05-20T11:19:18.946Z,3.10
2023-05-20T11:21:47.476Z,2.95
2023-05-20T11:24:15.835Z,2.95
2023-05-20T11:26:43.860Z,2.67
2023-05-20T11:29:11.814Z,2.85
2023-05-20T11:31:40.094Z,2.78
2023-05-20T11:34:08.162Z,3.13
2023-05-20T11:36:42.178Z,2.90
2023-05-20T11:39:11.280Z,2.78
2023-05-20T11:41:39.931Z,2.90
2023-05-20T11:44:11.237Z,3.00
2023-05-20T11:46:43.068Z,2.80
2023-05-20T11:49:11.420Z,2.90
2023-05-20T11:51:41.002Z,3.00
2023-05-20T11:54:10.085Z,2.80
2023-05-20T11:56:38.989Z,3.05
2023-05-20T11:59:07.765Z,2.92
2023-05-20T12:01:41.007Z,2.70
2023-05-20T12:04:09.379Z,2.80
2023-05-20T12:06:38.221Z,3.10
2023-05-20T12:09:08.681Z,2.50
2023-05-20T12:11:37.889Z,2.55
2023-05-20T12:14:05.811Z,2.95
2023-05-20T12:16:35.392Z,3.22
2023-05-20T12:19:04.237Z,2.80
2023-05-20T12:21:32.505Z,3.00
2023-05-20T12:24:01.221Z,3.00
2023-05-20T12:26:31.247Z,2.65
2023-05-20T12:28:59.211Z,2.67
2023-05-20T12:31:27.175Z,2.35
2023-05-20T12:33:55.109Z,2.90
2023-05-20T12:36:23.204Z,3.03
2023-05-20T12:38:51.151Z,3.20
2023-05-20T12:41:19.071Z,3.25
2023-05-20T12:43:48.396Z,3.38
2023-05-20T12:46:16.284Z,2.92
2023-05-20T12:48:44.198Z,3.10
2023-05-20T12:51:12.091Z,2.72
2023-05-20T12:53:40.528Z,2.90
2023-05-20T12:56:08.660Z,2.70
2023-05-20T12:58:36.624Z,2.90
2023-05-20T13:01:05.932Z,3.30
2023-05-20T13:03:33.989Z,2.75
2023-05-20T13:06:02.035Z,3.05
2023-05-20T13:08:29.986Z,2.83
2023-05-20T13:10:57.885Z,2.95
2023-05-20T13:13:25.844Z,3.30
2023-05-20T13:15:53.756Z,2.80
2023-05-20T13:18:22.975Z,3.13
2023-05-20T13:20:50.904Z,2.60
2023-05-20T13:23:18.811Z,3.00
2023-05-20T13:25:46.719Z,2.70
2023-05-20T13:28:18.421Z,2.90
2023-05-20T13:30:46.377Z,2.65
2023-05-20T13:33:14.326Z,2.78
2023-05-20T13:35:43.628Z,3.08
2023-05-20T13:38:11.640Z,2.90
2023-05-20T13:40:39.563Z,2.67
2023-05-20T13:43:07.545Z,2.72
2023-05-20T13:45:35.505Z,2.92
2023-05-20T13:48:03.851Z,3.00
2023-05-20T13:50:31.871Z,2.90
2023-05-20T13:53:01.177Z,3.05
2023-05-20T13:55:29.072Z,2.78
2023-05-20T13:57:56.973Z,2.42
2023-05-20T14:00:24.894Z,2.58
2023-05-20T14:03:04.723Z,2.33
2023-05-20T14:05:33.524Z,2.85
2023-05-20T14:08:03.186Z,2.40
2023-05-20T14:10:31.065Z,2.65
2023-05-20T14:13:02.015Z,3.10
2023-05-20T14:15:30.612Z,2.75
2023-05-20T14:17:58.619Z,2.70
2023-05-20T14:20:26.971Z,2.22
2023-05-20T14:22:54.947Z,2.97
2023-05-20T14:25:24.191Z,2.58
2023-05-20T14:27:52.103Z,2.53
2023-05-20T14:30:20.091Z,2.50
2023-05-20T14:32:48.016Z,2.72
2023-05-20T14:35:16.495Z,2.65
2023-05-20T14:37:44.384Z,2.97
2023-05-20T14:40:13.042Z,2.72
2023-05-20T14:42:42.374Z,2.75
2023-05-20T14:45:11.421Z,2.50
2023-05-20T14:47:40.194Z,3.00
2023-05-20T14:50:08.408Z,2.72
2023-05-20T14:52:36.352Z,2.80
2023-05-20T14:55:04.532Z,2.80
2023-05-20T14:57:32.502Z,2.75
2023-05-20T15:00:01.765Z,2.40
2023-05-20T15:02:29.907Z,2.30
2023-05-20T15:04:58.211Z,2.75
2023-05-20T15:07:26.637Z,2.55
2023-05-20T15:09:54.695Z,2.20
2023-05-20T15:12:22.568Z,2.65
2023-05-20T15:14:50.410Z,2.63
2023-05-20T15:17:19.685Z,2.45
2023-05-20T15:19:47.622Z,2.50
2023-05-20T15:22:15.580Z,2.63
2023-05-20T15:24:43.526Z,2.40
2023-05-20T15:27:11.412Z,2.30
2023-05-20T15:29:40.873Z,2.55
2023-05-20T15:32:09.113Z,2.72
2023-05-20T15:34:38.500Z,2.45
2023-05-20T15:37:06.508Z,2.63
2023-05-20T15:39:38.320Z,2.53
2023-05-20T15:42:13.710Z,2.35
2023-05-20T15:44:41.936Z,2.38
2023-05-20T15:47:09.870Z,2.63
2023-05-20T15:49:39.151Z,2.60
2023-05-20T15:52:07.531Z,2.53
2023-05-20T15:54:35.599Z,2.45
2023-05-20T15:57:05.061Z,2.53
2023-05-20T15:59:33.122Z,2.40
2023-05-20T16:02:01.390Z,2.08
2023-05-20T16:04:29.467Z,2.78
2023-05-20T16:06:59.056Z,2.67
2023-05-20T16:09:26.976Z,2.85
2023-05-20T16:11:56.107Z,2.80
2023-05-20T16:14:24.045Z,3.10
2023-05-20T16:16:51.947Z,2.75
2023-05-20T16:19:19.839Z,2.55
2023-05-20T16:21:47.814Z,2.60
2023-05-20T16:24:17.303Z,2.85
2023-05-20T16:26:45.224Z,3.00
2023-05-20T16:29:15.663Z,3.33
2023-05-20T16:31:46.667Z,2.75
2023-05-20T16:34:16.361Z,2.47
2023-05-20T16:36:45.156Z,2.63
2023-05-20T16:39:13.270Z,2.65
2023-05-20T16:41:42.820Z,2.30
2023-05-20T16:44:11.116Z,2.40
2023-05-20T16:46:39.067Z,2.50
2023-05-20T16:49:07.114Z,2.70
2023-05-20T16:51:35.068Z,2.50
2023-05-20T16:54:03.017Z,2.70
2023-05-20T16:56:31.190Z,2.75
2023-05-20T16:59:00.514Z,2.63
2023-05-20T17:01:29.051Z,2.70
2023-05-20T17:03:57.054Z,2.80
2023-05-20T17:06:24.977Z,2.60
2023-05-20T17:08:52.893Z,2.63
2023-05-20T17:11:20.795Z,2.90
2023-05-20T17:13:48.715Z,2.22
2023-05-20T17:16:18.064Z,3.20
2023-05-20T17:18:46.037Z,2.80
2023-05-20T17:21:15.757Z,2.50
2023-05-20T17:23:43.775Z,2.28
2023-05-20T17:26:11.660Z,2.85
2023-05-20T17:28:39.625Z,2.88
2023-05-20T17:31:08.899Z,3.10
2023-05-20T17:33:38.419Z,2.78
2023-05-20T17:36:07.341Z,2.90
2023-05-20T17:38:35.287Z,2.85
2023-05-20T17:41:03.243Z,3.08
2023-05-20T17:43:31.165Z,2.78
2023-05-20T17:45:59.133Z,2.85
2023-05-20T17:48:27.030Z,2.90
2023-05-20T17:50:58.161Z,2.97
2023-05-20T17:53:26.255Z,3.33
2023-05-20T17:55:54.204Z,2.60
2023-05-20T17:58:25.068Z,3.25
2023-05-20T18:00:53.636Z,3.33
2023-05-20T18:03:23.034Z,3.00
2023-05-20T18:05:51.649Z,2.45
2023-05-20T18:08:21.648Z,2.63
2023-05-20T18:10:49.611Z,2.83
2023-05-20T18:13:17.588Z,2.50
2023-05-20T18:15:45.636Z,2.40
2023-05-20T18:18:13.634Z,2.60
2023-05-20T18:20:42.013Z,2.30
2023-05-20T18:23:10.130Z,2.17
2023-05-20T18:25:41.758Z,2.70
2023-05-20T18:28:11.188Z,2.70
2023-05-20T18:30:39.156Z,2.55
2023-05-20T18:33:07.362Z,2.53
2023-05-20T18:35:35.519Z,2.55
2023-05-20T18:38:03.445Z,2.40
2023-05-20T18:40:31.273Z,2.35
2023-05-20T18:43:00.828Z,2.90
2023-05-20T18:45:28.672Z,2.75
2023-05-20T18:47:59.328Z,2.65
2023-05-20T18:50:27.277Z,2.78
2023-05-20T18:52:55.343Z,2.80
2023-05-20T18:55:23.885Z,2.95
2023-05-20T18:57:52.178Z,2.75
2023-05-20T19:00:21.507Z,2.97
2023-05-20T19:02:49.509Z,2.25
2023-05-20T19:05:17.488Z,2.40
2023-05-20T19:07:45.534Z,2.85
2023-05-20T19:10:15.152Z,2.50
2023-05-20T19:12:43.511Z,2.78
2023-05-20T19:15:11.935Z,2.75
2023-05-20T19:17:41.242Z,2.50
2023-05-20T19:20:10.565Z,2.47
2023-05-20T19:22:38.745Z,2.60
2023-05-20T19:25:08.182Z,2.85
2023-05-20T19:27:36.298Z,2.67
2023-05-20T19:30:04.476Z,2.97
2023-05-20T19:32:32.461Z,2.88
2023-05-20T19:35:01.744Z,2.65
2023-05-20T19:37:29.670Z,2.42
2023-05-20T19:39:57.544Z,3.03
2023-05-20T19:42:25.456Z,2.63
2023-05-20T19:44:54.115Z,3.17
2023-05-20T19:47:22.408Z,2.95
2023-05-20T19:49:50.386Z,2.90
2023-05-20T19:52:20.462Z,3.10
2023-05-20T19:54:48.628Z,2.97
2023-05-20T19:57:16.916Z,2.67
2023-05-20T19:59:44.862Z,3.10
2023-05-20T20:02:12.920Z,3.22
2023-05-20T20:04:41.948Z,2.92
2023-05-20T20:07:09.901Z,3.30
2023-05-20T20:09:39.242Z,3.30
2023-05-20T20:12:09.239Z,2.97
2023-05-20T20:14:38.063Z,3.17
2023-05-20T20:17:06.258Z,2.40
2023-05-20T20:19:34.261Z,2.55
2023-05-20T20:22:02.182Z,2.78
2023-05-20T20:24:30.075Z,2.95
2023-05-20T20:26:59.763Z,3.35
2023-05-20T20:29:27.688Z,2.85
2023-05-20T20:31:56.063Z,3.42
2023-05-20T20:34:24.105Z,3.15
2023-05-20T20:36:53.201Z,2.70
2023-05-20T20:39:22.561Z,3.67
2023-05-20T20:41:51.398Z,3.28
2023-05-20T20:44:22.512Z,3.50
2023-05-20T20:46:51.554Z,3.00
2023-05-20T20:49:19.628Z,2.95
2023-05-20T20:51:48.339Z,3.60
2023-05-20T20:54:16.327Z,3.70
2023-05-20T20:56:46.859Z,3.45
2023-05-20T20:59:16.077Z,3.30
2023-05-20T21:01:45.730Z,3.35
2023-05-20T21:04:14.516Z,3.42
2023-05-20T21:06:45.984Z,3.40
2023-05-20T21:09:14.046Z,3.38
2023-05-20T21:11:42.883Z,3.65
2023-05-20T21:14:11.099Z,3.58
2023-05-20T21:16:39.272Z,3.80
2023-05-20T21:19:09.353Z,3.38
2023-05-20T21:21:37.344Z,3.35
2023-05-20T21:24:05.439Z,3.50
2023-05-20T21:26:33.431Z,3.33
2023-05-20T21:29:01.407Z,3.33
2023-05-20T21:31:29.585Z,3.85
2023-05-20T21:34:09.100Z,3.40
2023-05-20T21:36:42.430Z,3.22
2023-05-20T21:39:12.898Z,3.35
2023-05-20T21:41:40.930Z,3.50
2023-05-20T21:44:08.905Z,3.47
2023-05-20T21:46:39.238Z,3.65
2023-05-20T21:49:08.355Z,3.70
2023-05-20T21:51:36.348Z,4.07
2023-05-20T21:54:09.340Z,4.05
2023-05-20T21:56:37.315Z,3.70
2023-05-20T21:59:05.124Z,3.45
2023-05-20T22:01:33.246Z,3.55
2023-05-20T22:04:01.369Z,3.90
2023-05-20T22:06:29.643Z,3.95
2023-05-20T22:08:59.248Z,3.50
2023-05-20T22:11:28.776Z,4.03
2023-05-20T22:13:57.232Z,3.67
2023-05-20T22:16:25.518Z,3.33
2023-05-20T22:18:56.775Z,3.47
2023-05-20T22:21:25.389Z,3.70
2023-05-20T22:23:53.749Z,3.20
2023-05-20T22:26:22.144Z,3.60
2023-05-20T22:28:51.537Z,3.28
2023-05-20T22:31:19.583Z,3.40
2023-05-20T22:33:47.607Z,3.47
2023-05-20T22:36:15.771Z,3.50
2023-05-20T22:38:43.794Z,3.53
2023-05-20T22:41:11.823Z,3.17
2023-05-20T22:43:42.125Z,3.67
2023-05-20T22:46:11.600Z,3.92
2023-05-20T22:48:39.480Z,3.10
2023-05-20T22:51:08.847Z,3.13
2023-05-20T22:53:36.949Z,3.10
2023-05-20T22:56:05.866Z,2.65
2023-05-20T22:58:39.444Z,3.08
2023-05-20T23:01:08.339Z,3.13
2023-05-20T23:03:37.804Z,2.83
2023-05-20T23:06:06.552Z,2.85
2023-05-20T23:08:34.780Z,3.15
2023-05-20T23:11:02.923Z,3.03
2023-05-20T23:13:31.427Z,2.90
2023-05-20T23:15:59.470Z,2.60
2023-05-20T23:18:27.410Z,2.90
2023-05-20T23:20:56.896Z,2.85
2023-05-20T23:23:30.312Z,2.90
2023-05-20T23:26:00.458Z,2.75
2023-05-20T23:28:28.506Z,2.72
2023-05-20T23:30:58.648Z,2.70
2023-05-20T23:33:27.113Z,2.55
2023-05-20T23:35:56.706Z,2.50
2023-05-20T23:38:24.936Z,2.63
2023-05-20T23:40:53.038Z,2.90
2023-05-20T23:43:21.284Z,2.95
2023-05-20T23:45:49.365Z,2.83
2023-05-20T23:48:17.852Z,2.97
2023-05-20T23:50:48.300Z,2.63
2023-05-20T23:53:17.680Z,2.60
2023-05-20T23:55:46.127Z,2.72
2023-05-20T23:58:14.097Z,2.97
